Terminal Aerodrome Forecast
Issued by NWS

Home | Current Version | Previous Version | Text Only | Print | Product List | Glossary On
Versions: 1 2 3 4 5 6 7 8 9 10 11 12 13 14 15 16 17
000
FTUS43 KSGF 020800 AAC
TAFJLN
TAF AMD
KJLN 020811Z 0208/0306 22015G22KT P6SM VCTS OVC070CB
     FM021000 21015G22KT P6SM SCT040 BKN250
     FM021400 32010KT P6SM OVC030=

USA.gov is the U.S. government's official web portal to all federal, state and local government web resources and services.